Time;durP1;ratioP1;P1;durP2;ratioP2;P2;SDS_P1;SDS_P2;PMS_P1;PMS_P2;Temp;Humidity;BMP_temperature;BMP_pressure;BME280_temperature;BME280_humidity;BME280_pressure;Samples;Min_cycle;Max_cycle;Signal;HPM_P1;HPM_P2
2022/01/10 00:01:28;;;;;;;6.03;2.43;;;;;;;7.79;100.00;102441.63;4814916;29;20480;-95
2022/01/10 00:04:11;;;;;;;10.70;9.30;;;;;;;7.66;100.00;102437.41;4844339;29;20849;-95
2022/01/10 00:10:29;;;;;;;4.47;2.23;;;;;;;7.55;100.00;102452.78;4845186;29;20453;-96
2022/01/10 00:17:32;;;;;;;9.80;1.83;;;;;;;7.41;100.00;102442.25;4845019;29;20449;-96
2022/01/10 00:20:48;;;;;;;3.83;1.90;;;;;;;7.38;100.00;102437.06;4845079;29;20452;-96
2022/01/10 00:23:55;;;;;;;6.57;3.40;;;;;;;7.37;100.00;102451.66;4843782;29;20696;-96
2022/01/10 00:27:06;;;;;;;4.10;2.60;;;;;;;7.34;100.00;102449.19;4843758;29;20476;-96
2022/01/10 00:29:56;;;;;;;9.40;3.27;;;;;;;7.36;100.00;102444.47;4844854;29;20463;-96
2022/01/10 00:32:41;;;;;;;8.60;5.53;;;;;;;7.35;100.00;102445.47;4830975;29;20457;-96
2022/01/10 00:38:57;;;;;;;13.77;9.50;;;;;;;7.27;100.00;102437.13;4863263;29;21047;-96
2022/01/10 00:42:18;;;;;;;17.17;7.33;;;;;;;7.25;100.00;102429.09;4847284;29;20835;-96
2022/01/10 00:44:51;;;;;;;11.27;5.60;;;;;;;7.15;100.00;102419.13;4862018;29;20547;-96
2022/01/10 00:47:40;;;;;;;8.30;4.60;;;;;;;7.24;100.00;102426.50;4847759;29;20459;-96
2022/01/10 00:50:48;;;;;;;7.33;4.13;;;;;;;7.28;100.00;102425.25;4846756;29;20456;-95
2022/01/10 00:54:05;;;;;;;24.70;9.17;;;;;;;7.27;100.00;102431.69;4864948;29;20449;-95
2022/01/10 01:01:33;;;;;;;12.97;5.03;;;;;;;7.18;100.00;102414.28;4844234;29;20869;-94
2022/01/10 01:04:30;;;;;;;9.07;5.00;;;;;;;7.14;100.00;102417.38;4843780;29;20464;-95
2022/01/10 01:07:41;;;;;;;6.43;3.70;;;;;;;7.11;100.00;102414.97;4844502;29;20870;-94
2022/01/10 01:20:31;;;;;;;6.53;3.80;;;;;;;7.01;100.00;102419.44;4830535;29;20553;-95
2022/01/10 01:30:34;;;;;;;7.13;2.77;;;;;;;6.93;100.00;102403.75;4862252;29;20462;-94
2022/01/10 01:37:17;;;;;;;5.47;3.30;;;;;;;6.73;100.00;102369.28;4862178;29;20488;-94
2022/01/10 01:39:50;;;;;;;12.83;3.47;;;;;;;6.80;100.00;102387.63;4845955;29;20456;-94
2022/01/10 01:42:56;;;;;;;6.20;3.20;;;;;;;6.86;100.00;102394.41;4846082;29;20495;-94
2022/01/10 01:45:54;;;;;;;7.23;3.97;;;;;;;6.86;100.00;102395.28;4861076;29;20467;-95
2022/01/10 01:52:11;;;;;;;7.90;4.00;;;;;;;6.67;100.00;102373.38;4862103;29;20626;-94
2022/01/10 01:54:39;;;;;;;9.27;3.67;;;;;;;6.70;100.00;102372.25;4832749;29;20471;-94
2022/01/10 01:57:10;;;;;;;12.13;4.53;;;;;;;6.69;100.00;102371.38;4834318;29;20451;-94
2022/01/10 01:59:44;;;;;;;10.67;4.47;;;;;;;6.74;100.00;102388.13;4834452;29;20462;-94
2022/01/10 02:02:39;;;;;;;9.47;4.40;;;;;;;6.76;100.00;102386.16;4849240;29;20491;-94
2022/01/10 02:06:03;;;;;;;10.10;4.03;;;;;;;6.74;100.00;102385.41;4863954;29;20466;-94
2022/01/10 02:09:14;;;;;;;5.63;3.50;;;;;;;6.68;100.00;102383.25;4865267;29;20461;-95
2022/01/10 02:16:05;;;;;;;11.47;3.63;;;;;;;6.61;100.00;102378.44;4902835;29;20421;-95
2022/01/10 02:19:01;;;;;;;6.23;3.43;;;;;;;6.57;100.00;102377.81;4903089;29;20465;-94
2022/01/10 02:25:52;;;;;;;6.63;2.90;;;;;;;6.53;100.00;102387.25;4902765;29;20446;-94
2022/01/10 02:36:03;;;;;;;6.97;3.13;;;;;;;6.40;100.00;102368.38;4902529;29;20433;-95
2022/01/10 02:42:30;;;;;;;9.87;3.03;;;;;;;6.42;100.00;102373.66;4902545;29;20446;-95
2022/01/10 02:45:39;;;;;;;7.27;2.90;;;;;;;6.41;100.00;102367.38;4855605;29;20544;-94
2022/01/10 02:48:48;;;;;;;5.50;2.57;;;;;;;6.43;100.00;102369.97;4902195;29;20828;-94
2022/01/10 02:55:07;;;;;;;9.17;3.50;;;;;;;6.32;100.00;102351.00;4896656;29;20533;-95
2022/01/10 02:57:43;;;;;;;7.63;2.63;;;;;;;6.33;100.00;102341.88;4853115;29;20486;-95
2022/01/10 03:01:01;;;;;;;7.47;3.50;;;;;;;6.39;100.00;102346.75;4852350;29;20806;-94
2022/01/10 03:07:22;;;;;;;7.00;4.13;;;;;;;6.20;100.00;102332.00;4883515;29;20847;-93
2022/01/10 03:10:24;;;;;;;7.33;3.90;;;;;;;6.29;100.00;102351.25;4852302;29;20517;-94
2022/01/10 03:20:23;;;;;;;6.00;3.20;;;;;;;6.00;100.00;102321.91;4883365;29;20422;-95
2022/01/10 03:23:10;;;;;;;11.63;3.13;;;;;;;6.05;100.00;102338.69;4836170;29;20955;-95
2022/01/10 03:25:49;;;;;;;8.13;3.27;;;;;;;6.01;100.00;102334.50;4851590;29;20495;-94
2022/01/10 03:28:59;;;;;;;6.53;2.90;;;;;;;5.99;100.00;102336.47;4851680;29;20499;-94
2022/01/10 03:31:47;;;;;;;7.63;3.67;;;;;;;5.98;100.00;102332.03;4866431;29;20550;-95
2022/01/10 03:38:03;;;;;;;7.63;3.67;;;;;;;5.81;100.00;102313.50;4882830;29;20971;-94
2022/01/10 03:41:25;;;;;;;6.33;2.90;;;;;;;5.86;100.00;102322.16;4867480;29;20466;-95
2022/01/10 03:44:29;;;;;;;7.17;2.93;;;;;;;5.88;100.00;102331.03;4866656;29;20439;-94
2022/01/10 03:47:49;;;;;;;7.70;2.90;;;;;;;5.87;100.00;102332.88;4851185;29;20474;-96
2022/01/10 03:50:42;;;;;;;5.10;3.30;;;;;;;5.85;100.00;102326.72;4884921;29;20454;-93
2022/01/10 03:53:34;;;;;;;6.13;3.00;;;;;;;5.84;100.00;102337.69;4888228;29;20548;-93
2022/01/10 03:56:01;;;;;;;8.60;2.23;;;;;;;5.74;100.00;102328.59;4865995;29;20485;-94
2022/01/10 03:58:48;;;;;;;4.50;1.90;;;;;;;5.60;100.00;102313.41;4851234;29;20458;-94
2022/01/10 04:05:34;;;;;;;9.87;2.30;;;;;;;5.63;100.00;102328.56;4882288;29;20423;-94
2022/01/10 04:12:12;;;;;;;14.90;3.97;;;;;;;5.54;100.00;102325.63;4882132;29;20485;-95
2022/01/10 04:15:03;;;;;;;8.33;2.93;;;;;;;5.50;100.00;102318.72;4879653;29;20939;-94
2022/01/10 04:18:07;;;;;;;7.53;3.30;;;;;;;5.53;100.00;102321.19;4869438;29;20464;-94
2022/01/10 04:20:55;;;;;;;6.73;2.73;;;;;;;5.53;100.00;102318.47;4884811;29;20511;-95
2022/01/10 04:24:16;;;;;;;8.77;2.90;;;;;;;5.62;100.00;102332.25;4869030;29;20442;-93
2022/01/10 04:26:49;;;;;;;9.20;3.50;;;;;;;5.60;100.00;102328.81;4884072;29;20452;-94
2022/01/10 04:29:41;;;;;;;5.63;3.40;;;;;;;5.58;100.00;102325.38;4884198;29;20833;-95
2022/01/10 04:32:44;;;;;;;6.90;3.13;;;;;;;5.53;100.00;102321.19;4884037;29;20487;-95
2022/01/10 04:35:26;;;;;;;4.03;2.17;;;;;;;5.36;100.00;102285.56;4883741;29;20853;-94
2022/01/10 04:41:37;;;;;;;6.33;2.70;;;;;;;5.49;100.00;102308.84;4900278;29;20488;-93
2022/01/10 04:47:54;;;;;;;10.10;2.70;;;;;;;5.38;100.00;102292.59;4900265;29;20447;-94
2022/01/10 05:05:08;;;;;;;8.40;3.90;;;;;;;5.27;100.00;102295.25;4881263;29;20477;-93
2022/01/10 05:08:06;;;;;;;7.60;2.93;;;;;;;5.31;100.00;102299.47;4835710;29;20469;-95
2022/01/10 05:10:53;;;;;;;8.07;2.90;;;;;;;5.27;100.00;102280.84;4881211;29;20553;-93
2022/01/10 05:13:30;;;;;;;8.47;3.00;;;;;;;5.18;100.00;102271.63;4849527;29;20480;-94
2022/01/10 05:19:39;;;;;;;79.60;37.57;;;;;;;5.28;100.00;102301.56;4881152;29;20930;-94
2022/01/10 05:22:41;;;;;;;47.03;22.53;;;;;;;5.31;100.00;102295.88;4849904;29;20810;-93
2022/01/10 05:28:31;;;;;;;15.53;7.60;;;;;;;5.22;100.00;102289.34;4898447;29;20448;-93
2022/01/10 05:31:28;;;;;;;20.63;6.10;;;;;;;5.22;100.00;102300.19;4867666;29;20484;-92
2022/01/10 05:34:20;;;;;;;9.40;4.67;;;;;;;5.21;100.00;102301.16;4883456;29;20498;-93
2022/01/10 05:37:03;;;;;;;22.30;7.47;;;;;;;5.13;100.00;102293.66;4870456;29;20463;-91
2022/01/10 05:39:59;;;;;;;13.50;5.80;;;;;;;5.18;100.00;102301.44;4864621;29;20468;-92
2022/01/10 05:49:48;;;;;;;5.27;2.00;;;;;;;5.04;100.00;102298.91;4880821;29;20465;-94
2022/01/10 05:52:26;;;;;;;9.07;3.60;;;;;;;4.96;100.00;102293.25;4836414;29;20487;-93
2022/01/10 05:55:13;;;;;;;5.90;2.63;;;;;;;4.95;100.00;102291.53;4865018;29;20797;-95
2022/01/10 05:58:34;;;;;;;10.93;2.20;;;;;;;4.98;100.00;102294.00;4845153;29;20592;-94
2022/01/10 06:05:33;;;;;;;3.00;1.60;;;;;;;4.97;100.00;102300.41;4862074;29;20532;-93
2022/01/10 06:20:06;;;;;;;9.30;4.00;;;;;;;4.89;100.00;102268.47;4879346;29;20455;-94
2022/01/10 06:22:52;;;;;;;25.23;10.47;;;;;;;4.96;100.00;102290.53;4864167;29;20560;-93
2022/01/10 06:25:38;;;;;;;38.17;17.80;;;;;;;4.97;100.00;102294.97;4859790;29;20460;-93
2022/01/10 06:32:43;;;;;;;6.13;3.00;;;;;;;5.01;100.00;102307.28;4880157;29;20484;-94
2022/01/10 06:42:48;;;;;;;7.80;4.60;;;;;;;5.14;100.00;102292.66;4880146;29;20512;-93
2022/01/10 06:45:41;;;;;;;25.20;11.07;;;;;;;5.23;100.00;102301.91;4864073;29;20486;-94
2022/01/10 06:52:02;;;;;;;11.17;6.70;;;;;;;5.31;100.00;102285.91;4880152;29;20456;-93
2022/01/10 06:55:08;;;;;;;15.20;8.43;;;;;;;5.43;100.00;102293.06;4879081;29;20543;-93
2022/01/10 06:57:36;;;;;;;16.90;8.70;;;;;;;5.49;100.00;102298.00;4892392;29;21310;-93
2022/01/10 07:00:33;;;;;;;20.60;12.30;;;;;;;5.57;100.00;102299.25;4857800;29;20471;-94
2022/01/10 07:03:25;;;;;;;17.47;10.37;;;;;;;5.63;100.00;102293.31;4867450;29;20438;-94
2022/01/10 07:06:08;;;;;;;20.80;10.40;;;;;;;5.55;100.00;102275.81;4867447;29;20457;-94
2022/01/10 07:09:22;;;;;;;21.23;11.30;;;;;;;5.69;100.00;102301.81;4866871;29;20465;-94
2022/01/10 07:15:36;;;;;;;31.23;14.80;;;;;;;5.63;100.00;102288.75;4902017;29;20485;-92
2022/01/10 07:18:15;;;;;;;21.73;10.03;;;;;;;5.65;100.00;102288.63;4858248;29;20443;-92
2022/01/10 07:21:11;;;;;;;23.40;11.83;;;;;;;5.80;100.00;102309.06;4906701;29;20464;-92
2022/01/10 07:24:02;;;;;;;16.70;7.60;;;;;;;5.81;100.00;102305.38;4870076;29;20951;-94
2022/01/10 07:34:10;;;;;;;29.33;12.60;;;;;;;5.83;100.00;102296.13;4901658;29;20437;-94
2022/01/10 07:37:00;;;;;;;16.47;8.43;;;;;;;5.81;100.00;102299.94;4900630;29;20465;-94
2022/01/10 08:20:38;;;;;;;7.40;2.57;;;;;;;8.47;100.00;102320.22;5228995;23;20570;-92
2022/01/10 08:29:07;;;;;;;4.77;1.33;;;;;;;9.06;100.00;102321.09;5074462;23;20521;-92
2022/01/10 08:31:38;;;;;;;3.53;1.30;;;;;;;9.09;100.00;102301.72;4818022;29;20463;-92
2022/01/10 08:34:24;;;;;;;9.90;1.67;;;;;;;9.15;100.00;102295.69;4847892;29;20463;-92
2022/01/10 12:51:17;;;;;;;1.00;0.40;;;;;;;16.40;97.17;102107.59;4842370;29;20516;-95
2022/01/10 14:56:49;;;;;;;4.80;2.80;;;;;;;16.29;95.46;101957.25;4850089;29;20465;-91
2022/01/10 14:59:17;;;;;;;5.30;2.40;;;;;;;16.32;95.61;101945.81;4830792;29;20900;-87
2022/01/10 15:01:48;;;;;;;8.50;3.17;;;;;;;16.22;95.26;101959.09;4824909;29;20468;-91
2022/01/10 15:04:16;;;;;;;10.60;4.97;;;;;;;16.23;96.24;101947.00;4818556;29;20555;-88
2022/01/10 15:06:47;;;;;;;9.10;4.47;;;;;;;16.32;95.53;101959.63;4829802;29;21021;-89
2022/01/10 15:09:17;;;;;;;14.60;5.83;;;;;;;16.38;95.15;101950.50;4847239;29;20861;-88
2022/01/10 15:11:45;;;;;;;7.60;4.30;;;;;;;16.41;95.36;101950.09;4842102;29;20457;-88
2022/01/10 15:14:12;;;;;;;8.23;3.87;;;;;;;16.43;95.31;101972.84;4813308;29;21035;-87
2022/01/10 15:16:43;;;;;;;14.70;4.57;;;;;;;16.30;94.90;101970.00;4847413;29;20449;-88
2022/01/10 15:19:12;;;;;;;10.57;4.50;;;;;;;16.29;95.40;101973.81;4844742;29;20445;-87
2022/01/10 16:00:48;;;;;;;23.37;11.67;;;;;;;15.65;97.50;101943.56;4882780;29;20543;-82
2022/01/10 16:03:17;;;;;;;21.73;10.73;;;;;;;15.61;98.35;101950.53;4864464;29;20826;-84
2022/01/10 16:05:57;;;;;;;18.83;10.10;;;;;;;15.41;98.08;101943.94;4881306;29;20511;-87
2022/01/10 16:38:58;;;;;;;13.20;6.00;;;;;;;14.32;100.00;101956.72;4881914;29;20391;-92
2022/01/10 18:26:08;;;;;;;10.83;9.03;;;;;;;12.58;100.00;102003.25;4863722;29;20611;-92
2022/01/10 18:28:36;;;;;;;15.30;9.73;;;;;;;12.59;100.00;102004.94;4855264;29;20455;-88
2022/01/10 18:31:11;;;;;;;12.27;9.90;;;;;;;12.58;100.00;102016.94;4878797;29;20435;-91
2022/01/10 18:33:42;;;;;;;11.27;9.10;;;;;;;12.56;100.00;102021.75;4834304;29;20486;-92
2022/01/10 18:59:13;;;;;;;14.60;7.13;;;;;;;12.32;100.00;102026.25;4886115;29;20479;-92
2022/01/10 19:01:51;;;;;;;7.07;4.93;;;;;;;12.31;100.00;102016.34;4856522;29;21004;-93
2022/01/10 19:04:20;;;;;;;6.63;5.07;;;;;;;12.33;100.00;102027.97;4860553;29;21021;-93
2022/01/10 19:06:54;;;;;;;11.53;6.50;;;;;;;12.31;100.00;102023.72;4852008;29;20885;-92
2022/01/10 19:09:49;;;;;;;9.27;6.60;;;;;;;12.31;100.00;102040.16;4849785;29;20457;-92
2022/01/10 20:38:08;;;;;;;2.60;1.80;;;;;;;11.57;100.00;102068.50;4869854;29;20550;-94
2022/01/10 20:44:36;;;;;;;4.77;3.03;;;;;;;11.40;100.00;102052.03;4865917;29;20496;-93
2022/01/10 20:51:26;;;;;;;1.80;1.27;;;;;;;11.39;100.00;102057.69;4863544;29;20419;-92
2022/01/10 20:53:54;;;;;;;4.00;1.70;;;;;;;11.32;100.00;102054.78;4832366;29;20921;-93
2022/01/10 21:46:11;;;;;;;2.77;1.60;;;;;;;10.87;100.00;102033.22;4858740;29;20465;-95
2022/01/10 21:49:19;;;;;;;4.30;2.30;;;;;;;10.95;100.00;102046.09;4816442;29;20547;-95
2022/01/10 21:51:48;;;;;;;6.97;3.40;;;;;;;10.88;100.00;102040.41;4846070;29;20459;-96
2022/01/10 21:55:12;;;;;;;5.90;5.10;;;;;;;10.86;100.00;102045.19;4830695;29;20491;-95
2022/01/10 22:09:48;;;;;;;2.90;1.70;;;;;;;11.10;100.00;102029.88;4881264;29;20503;-93
2022/01/10 22:16:17;;;;;;;9.17;4.20;;;;;;;11.13;100.00;102027.69;4872817;29;21003;-95
2022/01/10 22:19:24;;;;;;;18.17;11.17;;;;;;;11.10;100.00;102027.16;4859790;29;20891;-94
2022/01/10 22:25:46;;;;;;;14.97;9.57;;;;;;;10.96;100.00;102021.31;4880577;29;20499;-93
2022/01/10 22:32:36;;;;;;;3.00;1.70;;;;;;;11.10;100.00;102014.34;4884237;29;20861;-92
2022/01/10 22:35:32;;;;;;;4.07;1.87;;;;;;;11.17;100.00;102014.50;4877513;29;20455;-93
2022/01/10 22:38:54;;;;;;;2.60;1.37;;;;;;;11.20;100.00;102000.50;4853563;29;20541;-95
2022/01/10 22:45:44;;;;;;;7.13;2.30;;;;;;;11.07;100.00;101974.47;4884148;29;20463;-95
2022/01/10 22:49:16;;;;;;;5.67;3.40;;;;;;;11.23;100.00;102005.63;4845677;29;20525;-93
2022/01/10 22:52:15;;;;;;;5.03;2.40;;;;;;;11.19;100.00;102005.09;4838029;29;20456;-93
2022/01/10 22:55:06;;;;;;;2.40;1.70;;;;;;;11.17;100.00;102012.63;4815203;29;20913;-92
2022/01/10 22:57:52;;;;;;;4.37;2.47;;;;;;;11.06;100.00;102000.13;4828922;29;20453;-93
2022/01/10 23:00:23;;;;;;;3.80;2.10;;;;;;;11.05;100.00;101995.66;4816601;29;20776;-92
2022/01/10 23:02:57;;;;;;;5.43;2.20;;;;;;;11.03;100.00;101994.97;4816296;29;20556;-94
2022/01/10 23:05:31;;;;;;;4.10;2.10;;;;;;;11.08;100.00;102003.56;4831280;29;20448;-92
2022/01/10 23:08:07;;;;;;;2.57;2.10;;;;;;;11.08;100.00;102005.44;4831252;29;20452;-93
2022/01/10 23:10:46;;;;;;;3.10;1.53;;;;;;;10.95;100.00;101988.66;4842912;29;20491;-92
2022/01/10 23:13:14;;;;;;;1.60;1.30;;;;;;;10.83;100.00;101982.59;4812519;29;20500;-92
2022/01/10 23:15:51;;;;;;;3.23;1.20;;;;;;;10.82;100.00;101991.81;4827445;29;20819;-94
2022/01/10 23:18:23;;;;;;;2.93;1.20;;;;;;;10.75;100.00;101996.25;4830510;29;20480;-93
2022/01/10 23:20:59;;;;;;;2.40;1.60;;;;;;;10.71;100.00;102000.34;4814129;29;20984;-92
2022/01/10 23:23:38;;;;;;;2.73;1.50;;;;;;;10.60;100.00;101986.94;4812777;29;20472;-94
2022/01/10 23:26:06;;;;;;;2.13;1.33;;;;;;;10.56;100.00;101997.38;4815483;29;20464;-95
2022/01/10 23:28:35;;;;;;;2.90;1.33;;;;;;;10.47;100.00;101979.19;4823846;29;20458;-92
2022/01/10 23:31:02;;;;;;;1.30;1.00;;;;;;;10.49;100.00;102000.91;4797499;29;20826;-94
2022/01/10 23:33:37;;;;;;;3.43;1.40;;;;;;;10.27;100.00;101981.31;4796980;29;20525;-93
2022/01/10 23:36:07;;;;;;;1.83;1.40;;;;;;;10.25;100.00;101993.41;4798340;29;20465;-94
2022/01/10 23:39:10;;;;;;;1.73;1.30;;;;;;;10.28;100.00;102004.88;4812212;29;20450;-93
2022/01/10 23:41:58;;;;;;;5.50;1.50;;;;;;;10.22;100.00;102000.03;4831033;29;20457;-94
2022/01/10 23:44:36;;;;;;;2.43;1.10;;;;;;;10.16;100.00;101992.47;4814361;29;20530;-94
2022/01/10 23:47:06;;;;;;;1.67;1.17;;;;;;;10.11;100.00;101992.09;4839126;29;20480;-92
2022/01/10 23:49:53;;;;;;;2.30;1.33;;;;;;;9.98;100.00;101975.28;4833383;29;20507;-95
2022/01/10 23:52:44;;;;;;;8.30;1.40;;;;;;;9.88;100.00;101974.50;4857642;29;20461;-92
2022/01/10 23:55:12;;;;;;;2.10;1.20;;;;;;;9.92;100.00;101992.28;4819950;29;20484;-92
2022/01/10 23:57:52;;;;;;;2.07;1.30;;;;;;;9.84;100.00;101976.69;4830844;29;20463;-93
